Time,TemperatureF,DewpointF,PressureIn,WindDirection,WindDirectionDegrees,WindSpeedMPH,WindSpeedGustMPH,Humidity,HourlyPrecipIn,Conditions,Clouds,dailyrainin,SoftwareType,DateUTC
2013-04-14 00:02:00,46.0,41.0,-100.00,South,190,9.0,11.0,81,-99.99,,,-99.99,,2013-04-14 04:02:00,
2013-04-14 00:12:00,46.0,41.0,-100.00,South,190,9.0,11.0,81,-99.99,,,-99.99,,2013-04-14 04:12:00,
2013-04-14 00:22:00,46.0,41.0,-100.00,South,190,9.0,11.0,81,-99.99,,,-99.99,,2013-04-14 04:22:00,
2013-04-14 00:32:00,46.0,41.0,-100.00,South,190,9.0,11.0,81,-99.99,,,-99.99,,2013-04-14 04:32:00,
2013-04-14 00:42:00,46.0,41.0,-100.00,South,190,9.0,11.0,81,-99.99,,,-99.99,,2013-04-14 04:42:00,
2013-04-14 00:52:00,47.0,42.0,-100.00,South,190,9.0,11.0,81,-99.99,,,-99.99,,2013-04-14 04:52:00,
2013-04-14 01:01:00,47.0,42.0,-100.00,South,190,9.0,11.0,81,-99.99,,,-99.99,,2013-04-14 05:01:00,
2013-04-14 01:22:00,47.0,42.0,-100.00,South,190,9.0,11.0,83,-99.99,,,-99.99,,2013-04-14 05:22:00,
2013-04-14 01:32:00,47.0,42.0,-100.00,South,190,9.0,11.0,83,-99.99,,,-99.99,,2013-04-14 05:32:00,
2013-04-14 01:42:00,47.0,42.0,-100.00,South,190,9.0,11.0,83,-99.99,,,-99.99,,2013-04-14 05:42:00,
2013-04-14 01:52:00,47.0,42.0,-100.00,South,190,9.0,11.0,83,-99.99,,,-99.99,,2013-04-14 05:52:00,
2013-04-14 02:01:00,47.0,42.0,-100.00,South,190,9.0,11.0,83,-99.99,,,-99.99,,2013-04-14 06:01:00,
2013-04-14 02:11:00,47.0,41.0,-100.00,South,190,9.0,9.0,79,-99.99,,,-99.99,,2013-04-14 06:11:00,
2013-04-14 02:21:00,47.0,41.0,-100.00,South,190,9.0,9.0,79,-99.99,,,-99.99,,2013-04-14 06:21:00,
2013-04-14 02:32:00,47.0,41.0,-100.00,South,190,9.0,9.0,79,-99.99,,,-99.99,,2013-04-14 06:32:00,
2013-04-14 02:42:00,47.0,41.0,-100.00,South,190,9.0,9.0,79,-99.99,,,-99.99,,2013-04-14 06:42:00,
2013-04-14 02:51:00,48.0,40.0,-100.00,SW,220,7.0,9.0,74,-99.99,,,-99.99,,2013-04-14 06:51:00,
2013-04-14 03:01:00,48.0,40.0,-100.00,SW,220,7.0,9.0,74,-99.99,,,-99.99,,2013-04-14 07:01:00,
2013-04-14 03:11:00,49.0,40.0,-100.00,SSW,210,9.0,11.0,69,-99.99,,,-99.99,,2013-04-14 07:11:00,
2013-04-14 03:21:00,49.0,40.0,-100.00,SSW,210,9.0,11.0,69,-99.99,,,-99.99,,2013-04-14 07:21:00,
2013-04-14 03:31:00,49.0,40.0,-100.00,SSW,210,9.0,11.0,69,-99.99,,,-99.99,,2013-04-14 07:31:00,
2013-04-14 03:41:00,48.0,40.0,-100.00,South,190,7.0,9.0,73,-99.99,,,-99.99,,2013-04-14 07:41:00,
2013-04-14 03:52:00,48.0,40.0,-100.00,South,190,7.0,9.0,73,-99.99,,,-99.99,,2013-04-14 07:52:00,
2013-04-14 04:01:00,48.0,40.0,-100.00,South,190,7.0,9.0,73,-99.99,,,-99.99,,2013-04-14 08:01:00,
2013-04-14 04:11:00,47.0,43.0,-100.00,South,180,7.0,9.0,83,-99.99,,,-99.99,,2013-04-14 08:11:00,
2013-04-14 04:21:00,47.0,43.0,-100.00,South,180,7.0,9.0,83,-99.99,,,-99.99,,2013-04-14 08:21:00,
2013-04-14 04:31:00,47.0,43.0,-100.00,South,180,7.0,9.0,83,-99.99,,,-99.99,,2013-04-14 08:31:00,
2013-04-14 04:41:00,47.0,43.0,-100.00,South,180,7.0,9.0,83,-99.99,,,-99.99,,2013-04-14 08:41:00,
2013-04-14 04:51:00,47.0,43.0,-100.00,South,190,7.0,9.0,84,-99.99,,,-99.99,,2013-04-14 08:51:00,
2013-04-14 05:02:00,47.0,43.0,-100.00,South,190,7.0,9.0,84,-99.99,,,-99.99,,2013-04-14 09:02:00,
2013-04-14 05:21:00,48.0,42.0,-100.00,SSW,200,9.0,9.0,80,-99.99,,,-99.99,,2013-04-14 09:21:00,
2013-04-14 05:32:00,48.0,42.0,-100.00,SSW,200,9.0,9.0,80,-99.99,,,-99.99,,2013-04-14 09:32:00,
2013-04-14 05:42:00,48.0,42.0,-100.00,SSW,200,9.0,9.0,80,-99.99,,,-99.99,,2013-04-14 09:42:00,
2013-04-14 05:53:00,50.0,40.0,-100.00,SW,220,13.0,16.0,68,-99.99,,,-99.99,,2013-04-14 09:53:00,
2013-04-14 06:02:00,50.0,40.0,-100.00,SW,220,13.0,16.0,68,-99.99,,,-99.99,,2013-04-14 10:02:00,
2013-04-14 06:12:00,49.0,40.0,-100.00,SW,220,11.0,13.0,68,-99.99,,,-99.99,,2013-04-14 10:12:00,
2013-04-14 06:22:00,49.0,40.0,-100.00,SW,220,11.0,13.0,68,-99.99,,,-99.99,,2013-04-14 10:22:00,
2013-04-14 06:32:00,49.0,40.0,-100.00,SW,220,11.0,13.0,68,-99.99,,,-99.99,,2013-04-14 10:32:00,
2013-04-14 06:42:00,49.0,40.0,-100.00,SW,220,11.0,13.0,68,-99.99,,,-99.99,,2013-04-14 10:42:00,
2013-04-14 06:52:00,49.0,40.0,-100.00,SW,230,9.0,9.0,73,-99.99,,,-99.99,,2013-04-14 10:52:00,
2013-04-14 07:02:00,49.0,40.0,-100.00,SW,230,9.0,9.0,73,-99.99,,,-99.99,,2013-04-14 11:02:00,
2013-04-14 07:12:00,49.0,40.0,-100.00,WSW,240,11.0,13.0,71,-99.99,,,-99.99,,2013-04-14 11:12:00,
2013-04-14 07:22:00,49.0,40.0,-100.00,WSW,240,11.0,13.0,71,-99.99,,,-99.99,,2013-04-14 11:22:00,
2013-04-14 07:32:00,49.0,40.0,-100.00,WSW,240,11.0,13.0,71,-99.99,,,-99.99,,2013-04-14 11:32:00,
2013-04-14 07:41:00,49.0,40.0,-100.00,WSW,240,11.0,13.0,71,-99.99,,,-99.99,,2013-04-14 11:41:00,
2013-04-14 07:52:00,50.0,38.0,-100.00,WSW,240,11.0,13.0,63,-99.99,,,-99.99,,2013-04-14 11:52:00,
2013-04-14 08:01:00,50.0,38.0,-100.00,WSW,240,11.0,13.0,63,-99.99,,,-99.99,,2013-04-14 12:01:00,
2013-04-14 08:11:00,50.0,38.0,-100.00,WSW,250,9.0,11.0,63,-99.99,,,-99.99,,2013-04-14 12:11:00,
2013-04-14 08:21:00,50.0,38.0,-100.00,WSW,250,9.0,11.0,63,-99.99,,,-99.99,,2013-04-14 12:21:00,
2013-04-14 08:31:00,50.0,38.0,-100.00,WSW,250,9.0,11.0,63,-99.99,,,-99.99,,2013-04-14 12:31:00,
2013-04-14 08:41:00,50.0,38.0,-100.00,WSW,250,9.0,11.0,63,-99.99,,,-99.99,,2013-04-14 12:41:00,
2013-04-14 08:51:00,49.0,38.0,-100.00,WSW,250,9.0,11.0,65,-99.99,,,-99.99,,2013-04-14 12:51:00,
2013-04-14 09:01:00,49.0,38.0,-100.00,WSW,250,9.0,11.0,65,-99.99,,,-99.99,,2013-04-14 13:01:00,
2013-04-14 09:21:00,50.0,36.0,-100.00,West,270,13.0,18.0,57,-99.99,,,-99.99,,2013-04-14 13:21:00,
2013-04-14 09:31:00,50.0,36.0,-100.00,West,270,13.0,18.0,57,-99.99,,,-99.99,,2013-04-14 13:31:00,
2013-04-14 09:41:00,50.0,36.0,-100.00,West,270,13.0,18.0,57,-99.99,,,-99.99,,2013-04-14 13:41:00,
2013-04-14 09:52:00,48.0,36.0,-100.00,NW,320,16.0,20.0,61,-99.99,,,-99.99,,2013-04-14 13:52:00,
2013-04-14 10:01:00,48.0,36.0,-100.00,NW,320,16.0,20.0,61,-99.99,,,-99.99,,2013-04-14 14:01:00,
2013-04-14 10:11:00,48.0,34.0,-100.00,NW,320,16.0,18.0,58,-99.99,,,-99.99,,2013-04-14 14:11:00,
2013-04-14 10:21:00,48.0,34.0,-100.00,NW,320,16.0,18.0,58,-99.99,,,-99.99,,2013-04-14 14:21:00,
2013-04-14 10:31:00,48.0,34.0,-100.00,NW,320,16.0,18.0,58,-99.99,,,-99.99,,2013-04-14 14:31:00,
2013-04-14 10:41:00,48.0,34.0,-100.00,NW,320,16.0,18.0,58,-99.99,,,-99.99,,2013-04-14 14:41:00,
2013-04-14 10:51:00,48.0,33.0,-100.00,NW,320,16.0,20.0,55,-99.99,,,-99.99,,2013-04-14 14:51:00,
2013-04-14 11:01:00,48.0,33.0,-100.00,NW,320,16.0,20.0,55,-99.99,,,-99.99,,2013-04-14 15:01:00,
2013-04-14 11:11:00,49.0,33.0,-100.00,NW,320,13.0,18.0,54,-99.99,,,-99.99,,2013-04-14 15:11:00,
2013-04-14 11:21:00,49.0,33.0,-100.00,NW,320,13.0,18.0,54,-99.99,,,-99.99,,2013-04-14 15:21:00,
2013-04-14 11:32:00,49.0,33.0,-100.00,NW,320,13.0,18.0,54,-99.99,,,-99.99,,2013-04-14 15:32:00,
2013-04-14 11:42:00,49.0,33.0,-100.00,NW,320,13.0,18.0,54,-99.99,,,-99.99,,2013-04-14 15:42:00,
2013-04-14 11:52:00,49.0,32.0,-100.00,NW,310,18.0,22.0,51,-99.99,,,-99.99,,2013-04-14 15:52:00,
2013-04-14 12:03:00,49.0,32.0,-100.00,NW,310,18.0,22.0,51,-99.99,,,-99.99,,2013-04-14 16:03:00,
2013-04-14 12:12:00,49.0,31.0,-100.00,NW,310,16.0,20.0,49,-99.99,,,-99.99,,2013-04-14 16:12:00,
2013-04-14 12:22:00,49.0,31.0,-100.00,NW,310,16.0,20.0,49,-99.99,,,-99.99,,2013-04-14 16:22:00,
2013-04-14 12:32:00,49.0,31.0,-100.00,NW,310,16.0,20.0,49,-99.99,,,-99.99,,2013-04-14 16:32:00,
2013-04-14 12:42:00,50.0,29.0,-100.00,NW,310,16.0,25.0,45,-99.99,,,-99.99,,2013-04-14 16:42:00,
2013-04-14 12:52:00,50.0,29.0,-100.00,NW,310,16.0,25.0,45,-99.99,,,-99.99,,2013-04-14 16:52:00,
2013-04-14 13:01:00,50.0,29.0,-100.00,NW,310,16.0,25.0,45,-99.99,,,-99.99,,2013-04-14 17:01:00,
2013-04-14 13:11:00,50.0,29.0,-100.00,NW,320,16.0,22.0,45,-99.99,,,-99.99,,2013-04-14 17:11:00,
2013-04-14 13:22:00,50.0,29.0,-100.00,NW,320,16.0,22.0,45,-99.99,,,-99.99,,2013-04-14 17:22:00,
2013-04-14 13:32:00,50.0,29.0,-100.00,NW,320,16.0,22.0,45,-99.99,,,-99.99,,2013-04-14 17:32:00,
2013-04-14 13:41:00,49.0,29.0,-100.00,NW,310,18.0,27.0,44,-99.99,,,-99.99,,2013-04-14 17:41:00,
2013-04-14 13:52:00,49.0,29.0,-100.00,NW,310,18.0,27.0,44,-99.99,,,-99.99,,2013-04-14 17:52:00,
2013-04-14 14:01:00,49.0,29.0,-100.00,NW,310,18.0,27.0,44,-99.99,,,-99.99,,2013-04-14 18:01:00,
2013-04-14 14:11:00,50.0,28.0,-100.00,NW,310,20.0,29.0,43,-99.99,,,-99.99,,2013-04-14 18:11:00,
2013-04-14 14:21:00,50.0,28.0,-100.00,NW,310,20.0,29.0,43,-99.99,,,-99.99,,2013-04-14 18:21:00,
2013-04-14 14:32:00,50.0,28.0,-100.00,NW,310,20.0,29.0,43,-99.99,,,-99.99,,2013-04-14 18:32:00,
2013-04-14 14:42:00,50.0,28.0,-100.00,NW,310,20.0,29.0,43,-99.99,,,-99.99,,2013-04-14 18:42:00,
2013-04-14 14:51:00,50.0,29.0,-100.00,WNW,290,18.0,22.0,43,-99.99,,,-99.99,,2013-04-14 18:51:00,
2013-04-14 15:01:00,50.0,29.0,-100.00,WNW,290,18.0,22.0,43,-99.99,,,-99.99,,2013-04-14 19:01:00,
2013-04-14 15:21:00,50.0,29.0,-100.00,WNW,290,20.0,25.0,44,-99.99,,,-99.99,,2013-04-14 19:21:00,
2013-04-14 15:32:00,50.0,29.0,-100.00,WNW,290,20.0,25.0,44,-99.99,,,-99.99,,2013-04-14 19:32:00,
2013-04-14 15:42:00,50.0,30.0,-100.00,NW,310,16.0,22.0,45,-99.99,,,-99.99,,2013-04-14 19:42:00,
2013-04-14 15:52:00,50.0,30.0,-100.00,NW,310,16.0,22.0,45,-99.99,,,-99.99,,2013-04-14 19:52:00,
2013-04-14 16:02:00,50.0,30.0,-100.00,NW,310,16.0,22.0,45,-99.99,,,-99.99,,2013-04-14 20:02:00,
2013-04-14 16:11:00,51.0,28.0,-100.00,NW,310,16.0,22.0,40,-99.99,,,-99.99,,2013-04-14 20:11:00,
2013-04-14 16:21:00,51.0,28.0,-100.00,NW,310,16.0,22.0,40,-99.99,,,-99.99,,2013-04-14 20:21:00,
2013-04-14 16:31:00,51.0,28.0,-100.00,NW,310,16.0,22.0,40,-99.99,,,-99.99,,2013-04-14 20:31:00,
2013-04-14 16:42:00,51.0,28.0,-100.00,NW,310,16.0,22.0,40,-99.99,,,-99.99,,2013-04-14 20:42:00,
2013-04-14 16:52:00,51.0,29.0,-100.00,NW,310,16.0,22.0,44,-99.99,,,-99.99,,2013-04-14 20:52:00,
2013-04-14 17:01:00,51.0,29.0,-100.00,NW,310,16.0,22.0,44,-99.99,,,-99.99,,2013-04-14 21:01:00,
2013-04-14 17:22:00,51.0,29.0,-100.00,NW,320,18.0,22.0,41,-99.99,,,-99.99,,2013-04-14 21:22:00,
2013-04-14 17:32:00,51.0,29.0,-100.00,NW,320,18.0,22.0,41,-99.99,,,-99.99,,2013-04-14 21:32:00,
2013-04-14 17:42:00,51.0,29.0,-100.00,NW,320,18.0,22.0,41,-99.99,,,-99.99,,2013-04-14 21:42:00,
2013-04-14 17:52:00,51.0,30.0,-100.00,NW,310,16.0,22.0,43,-99.99,,,-99.99,,2013-04-14 21:52:00,
2013-04-14 18:02:00,51.0,30.0,-100.00,NW,310,16.0,22.0,43,-99.99,,,-99.99,,2013-04-14 22:02:00,
2013-04-14 18:12:00,52.0,29.0,-100.00,NW,320,16.0,20.0,42,-99.99,,,-99.99,,2013-04-14 22:12:00,
2013-04-14 18:22:00,52.0,29.0,-100.00,NW,320,16.0,20.0,42,-99.99,,,-99.99,,2013-04-14 22:22:00,
2013-04-14 18:32:00,52.0,29.0,-100.00,NW,320,16.0,20.0,42,-99.99,,,-99.99,,2013-04-14 22:32:00,
2013-04-14 18:42:00,52.0,29.0,-100.00,NW,320,16.0,20.0,42,-99.99,,,-99.99,,2013-04-14 22:42:00,
2013-04-14 18:52:00,51.0,30.0,-100.00,NNW,330,13.0,18.0,44,-99.99,,,-99.99,,2013-04-14 22:52:00,
2013-04-14 19:01:00,51.0,30.0,-100.00,NNW,330,13.0,18.0,44,-99.99,,,-99.99,,2013-04-14 23:01:00,
2013-04-14 19:11:00,51.0,31.0,-100.00,NNW,340,11.0,16.0,46,-99.99,,,-99.99,,2013-04-14 23:11:00,
2013-04-14 19:21:00,51.0,31.0,-100.00,NNW,340,11.0,16.0,46,-99.99,,,-99.99,,2013-04-14 23:21:00,
2013-04-14 19:32:00,51.0,31.0,-100.00,NNW,340,11.0,16.0,46,-99.99,,,-99.99,,2013-04-14 23:32:00,
2013-04-14 19:42:00,51.0,31.0,-100.00,NNW,340,11.0,16.0,46,-99.99,,,-99.99,,2013-04-14 23:42:00,
2013-04-14 19:52:00,50.0,32.0,-100.00,North,350,9.0,11.0,50,-99.99,,,-99.99,,2013-04-14 23:52:00,
2013-04-14 20:01:00,50.0,32.0,-100.00,North,350,9.0,11.0,50,-99.99,,,-99.99,,2013-04-15 00:01:00,
2013-04-14 20:11:00,50.0,32.0,-100.00,North,350,9.0,11.0,50,-99.99,,,-99.99,,2013-04-15 00:11:00,
2013-04-14 20:21:00,50.0,32.0,-100.00,North,360,9.0,11.0,50,-99.99,,,-99.99,,2013-04-15 00:21:00,
2013-04-14 20:32:00,50.0,32.0,-100.00,North,360,9.0,11.0,50,-99.99,,,-99.99,,2013-04-15 00:32:00,
2013-04-14 20:41:00,50.0,32.0,-100.00,North,360,9.0,11.0,50,-99.99,,,-99.99,,2013-04-15 00:41:00,
2013-04-14 21:02:00,49.0,32.0,-100.00,North,10,9.0,11.0,51,-99.99,,,-99.99,,2013-04-15 01:02:00,
2013-04-14 21:21:00,48.0,34.0,-100.00,NNE,30,9.0,9.0,56,-99.99,,,-99.99,,2013-04-15 01:21:00,
2013-04-14 21:31:00,48.0,34.0,-100.00,NNE,30,9.0,9.0,56,-99.99,,,-99.99,,2013-04-15 01:31:00,
2013-04-14 21:52:00,48.0,34.0,-100.00,NNE,30,9.0,11.0,58,-99.99,,,-99.99,,2013-04-15 01:52:00,
2013-04-14 22:21:00,48.0,33.0,-100.00,NE,50,7.0,11.0,57,-99.99,,,-99.99,,2013-04-15 02:21:00,
2013-04-14 22:31:00,48.0,33.0,-100.00,NE,50,7.0,11.0,57,-99.99,,,-99.99,,2013-04-15 02:31:00,
2013-04-14 22:41:00,47.0,35.0,-100.00,NE,50,9.0,11.0,63,-99.99,,,-99.99,,2013-04-15 02:41:00,
2013-04-14 23:21:00,46.0,35.0,-100.00,ENE,60,9.0,11.0,63,-99.99,,,-99.99,,2013-04-15 03:21:00,
2013-04-14 23:32:00,46.0,35.0,-100.00,ENE,60,9.0,11.0,63,-99.99,,,-99.99,,2013-04-15 03:32:00,
2013-04-14 23:53:00,46.0,35.0,-100.00,NE,50,9.0,11.0,64,-99.99,,,-99.99,,2013-04-15 03:53:00,